Time;durP1;ratioP1;P1;durP2;ratioP2;P2;SDS_P1;SDS_P2;PMS_P1;PMS_P2;Temp;Humidity;BMP_temperature;BMP_pressure;BME280_temperature;BME280_humidity;BME280_pressure;Samples;Min_cycle;Max_cycle;Signal;HPM_P1;HPM_P2
2023/06/21 00:00:16;;;;;;;25.23;21.52;;;;;;;20.92;81.48;100578.41;687994;28;1064;-81
2023/06/21 00:00:40;;;;;;;25.50;21.80;;;;;;;20.90;81.40;100579.34;692970;28;1403;-80
2023/06/21 00:01:02;;;;;;;26.80;22.30;;;;;;;20.87;81.53;100563.44;688236;28;1158;-81
2023/06/21 00:01:23;;;;;;;28.45;22.58;;;;;;;20.86;81.55;100567.91;696158;28;1203;-80
2023/06/21 00:01:43;;;;;;;29.38;22.55;;;;;;;20.91;81.41;100576.63;693333;28;1217;-80
2023/06/21 00:02:04;;;;;;;28.63;22.80;;;;;;;20.87;81.41;100574.94;688273;28;1264;-80
2023/06/21 00:02:25;;;;;;;27.65;22.63;;;;;;;20.84;81.45;100563.53;687964;28;1188;-81
2023/06/21 00:02:46;;;;;;;26.88;22.20;;;;;;;20.86;81.39;100572.31;693318;28;1218;-81
2023/06/21 00:03:07;;;;;;;28.13;22.63;;;;;;;20.86;81.35;100570.56;691121;28;1203;-80
2023/06/21 00:03:27;;;;;;;27.70;22.33;;;;;;;20.86;81.20;100570.56;693942;28;1012;-80
2023/06/21 00:03:48;;;;;;;27.15;21.95;;;;;;;20.90;81.65;100587.28;691189;28;1183;-80
2023/06/21 00:04:09;;;;;;;27.80;22.23;;;;;;;20.86;81.45;100567.00;691284;28;1109;-80
2023/06/21 00:04:29;;;;;;;29.20;22.83;;;;;;;20.81;81.70;100565.34;691205;28;1207;-81
2023/06/21 00:04:51;;;;;;;29.08;23.60;;;;;;;20.81;81.74;100561.78;691223;28;1169;-80
2023/06/21 00:05:12;;;;;;;29.08;23.40;;;;;;;20.81;81.59;100565.34;688622;28;1378;-80
2023/06/21 00:05:33;;;;;;;28.80;23.30;;;;;;;20.91;81.65;100578.44;693900;28;1246;-80
2023/06/21 00:05:54;;;;;;;29.83;23.48;;;;;;;20.86;81.56;100572.31;693954;28;1211;-80
2023/06/21 00:06:15;;;;;;;29.05;23.15;;;;;;;20.82;81.80;100571.50;691157;28;1086;-80
2023/06/21 00:06:38;;;;;;;29.63;23.30;;;;;;;20.73;81.79;100564.59;691280;28;737;-80
2023/06/21 00:06:58;;;;;;;29.95;23.42;;;;;;;20.70;81.93;100559.34;688024;28;1294;-80
2023/06/21 00:07:23;;;;;;;30.35;23.65;;;;;;;20.72;82.15;100560.16;688403;28;1280;-81
2023/06/21 00:07:44;;;;;;;30.05;23.42;;;;;;;20.70;82.37;100561.97;686030;28;858;-81
2023/06/21 00:08:05;;;;;;;27.95;22.60;;;;;;;20.69;82.37;100565.50;688596;28;1188;-81
2023/06/21 00:08:26;;;;;;;29.73;22.92;;;;;;;20.68;82.31;100564.66;688518;28;1010;-81
2023/06/21 00:08:48;;;;;;;32.10;23.92;;;;;;;20.64;82.49;100567.34;690466;28;1218;-82
2023/06/21 00:09:10;;;;;;;32.40;23.80;;;;;;;20.67;82.59;100568.19;693936;28;1887;-81
2023/06/21 00:09:30;;;;;;;33.40;23.30;;;;;;;20.67;82.68;100572.63;688973;28;1251;-82
2023/06/21 00:09:52;;;;;;;32.80;23.13;;;;;;;20.70;82.52;100572.59;688502;28;969;-81
2023/06/21 00:10:13;;;;;;;33.10;23.13;;;;;;;20.66;82.63;100565.56;688718;28;1014;-81
2023/06/21 00:10:34;;;;;;;30.40;22.92;;;;;;;20.64;82.55;100560.28;688401;28;1150;-81
2023/06/21 00:10:55;;;;;;;29.85;23.15;;;;;;;20.67;82.66;100568.19;691251;28;924;-81
2023/06/21 00:11:17;;;;;;;29.70;23.70;;;;;;;20.69;82.60;100576.13;691200;28;1114;-80
2023/06/21 00:11:38;;;;;;;31.58;24.98;;;;;;;20.65;82.54;100569.13;688504;28;1106;-80
2023/06/21 00:11:59;;;;;;;30.75;24.58;;;;;;;20.67;82.78;100569.97;688006;28;1233;-81
2023/06/21 00:12:22;;;;;;;31.40;24.65;;;;;;;20.65;82.58;100575.28;693681;28;1082;-80
2023/06/21 00:12:42;;;;;;;31.35;24.20;;;;;;;20.65;82.69;100574.44;690717;28;1383;-81
2023/06/21 00:13:03;;;;;;;30.67;23.70;;;;;;;20.65;82.47;100571.78;691267;28;1172;-81
2023/06/21 00:13:24;;;;;;;31.08;23.83;;;;;;;20.67;82.61;100581.44;691112;28;1069;-81
2023/06/21 00:13:44;;;;;;;29.88;23.25;;;;;;;20.62;82.59;100569.16;693727;28;1269;-82
2023/06/21 00:14:05;;;;;;;30.73;23.47;;;;;;;20.65;82.73;100577.09;695775;28;1212;-80
2023/06/21 00:14:26;;;;;;;32.55;24.13;;;;;;;20.65;82.59;100571.78;699292;28;1234;-82
2023/06/21 00:14:47;;;;;;;33.53;25.15;;;;;;;20.64;82.60;100570.91;693898;28;1489;-82
2023/06/21 00:15:09;;;;;;;33.42;25.13;;;;;;;20.63;82.73;100571.81;691334;28;1246;-82
2023/06/21 00:15:30;;;;;;;31.25;24.35;;;;;;;20.67;82.53;100573.47;691133;28;1232;-82
2023/06/21 00:15:50;;;;;;;31.17;23.90;;;;;;;20.69;82.61;100576.13;693900;28;1008;-82
2023/06/21 00:16:13;;;;;;;31.43;23.90;;;;;;;20.71;82.43;100581.44;693966;28;1227;-81
2023/06/21 00:16:34;;;;;;;32.65;24.65;;;;;;;20.72;82.34;100576.06;694028;28;885;-81
2023/06/21 00:16:54;;;;;;;31.42;24.02;;;;;;;20.71;82.44;100582.28;693759;28;1107;-81
2023/06/21 00:17:15;;;;;;;31.17;23.27;;;;;;;20.69;82.20;100576.13;696692;28;1096;-81
2023/06/21 00:17:36;;;;;;;32.55;23.67;;;;;;;20.70;82.16;100585.84;699008;28;1368;-81
2023/06/21 00:17:57;;;;;;;32.25;24.35;;;;;;;20.67;82.43;100577.94;696578;28;1140;-81
2023/06/21 00:18:18;;;;;;;31.75;24.15;;;;;;;20.67;82.14;100584.09;693772;28;1585;-81
2023/06/21 00:18:39;;;;;;;31.00;23.42;;;;;;;20.67;82.21;100578.78;691279;28;1188;-81
2023/06/21 00:18:59;;;;;;;32.73;23.83;;;;;;;20.72;82.16;100581.38;693757;28;1295;-81
2023/06/21 00:19:20;;;;;;;31.98;24.33;;;;;;;20.71;82.16;100589.38;688349;28;1074;-81
2023/06/21 00:19:40;;;;;;;30.38;24.05;;;;;;;20.73;82.07;100591.13;690438;28;1264;-81
2023/06/21 00:20:06;;;;;;;33.10;24.30;;;;;;;20.72;82.08;100586.69;690783;28;1214;-81
2023/06/21 00:20:26;;;;;;;35.25;24.98;;;;;;;20.67;81.86;100588.53;693851;28;1350;-83
2023/06/21 00:20:47;;;;;;;34.50;24.40;;;;;;;20.74;81.95;100605.22;693930;28;1276;-81
2023/06/21 00:21:08;;;;;;;32.08;24.15;;;;;;;20.71;82.08;100600.84;689252;28;1239;-82
2023/06/21 00:21:29;;;;;;;31.13;23.95;;;;;;;20.68;82.04;100600.88;691293;28;1119;-81
2023/06/21 00:21:50;;;;;;;31.50;24.10;;;;;;;20.74;81.91;100611.41;688371;28;1226;-81
2023/06/21 00:22:10;;;;;;;30.90;23.90;;;;;;;20.68;81.98;100607.06;691189;28;1179;-81
2023/06/21 00:22:31;;;;;;;32.25;24.20;;;;;;;20.67;81.85;100599.13;691179;28;1120;-81
2023/06/21 00:22:55;;;;;;;30.42;24.23;;;;;;;20.67;81.86;100599.13;688543;28;932;-81
2023/06/21 00:23:18;;;;;;;31.67;24.67;;;;;;;20.67;82.09;100604.44;690597;28;1362;-81
2023/06/21 00:23:39;;;;;;;31.30;23.83;;;;;;;20.66;81.94;100608.84;691578;28;1258;-81
2023/06/21 00:24:02;;;;;;;32.65;23.92;;;;;;;20.64;82.03;100610.66;695806;28;1208;-81
2023/06/21 00:24:23;;;;;;;33.92;24.08;;;;;;;20.66;81.81;100606.19;690970;28;1134;-81
2023/06/21 00:24:44;;;;;;;34.88;25.05;;;;;;;20.63;82.14;100610.69;691178;28;884;-82
2023/06/21 00:25:06;;;;;;;34.83;24.77;;;;;;;20.69;82.03;100623.84;688508;28;1291;-82
2023/06/21 00:25:27;;;;;;;35.90;25.55;;;;;;;20.65;82.23;100622.16;691110;28;1314;-81
2023/06/21 00:25:47;;;;;;;36.08;26.00;;;;;;;20.68;82.15;100622.09;693944;28;1421;-81
2023/06/21 00:26:08;;;;;;;34.10;26.00;;;;;;;20.63;82.37;100621.28;691301;28;1035;-81
2023/06/21 00:26:29;;;;;;;32.72;24.92;;;;;;;20.65;82.25;100622.16;691207;28;951;-82
2023/06/21 00:26:50;;;;;;;32.55;24.35;;;;;;;20.60;82.14;100616.03;690964;28;1386;-81
2023/06/21 00:27:12;;;;;;;32.90;24.75;;;;;;;20.60;81.98;100618.69;694064;28;980;-81
2023/06/21 00:27:33;;;;;;;31.50;24.38;;;;;;;20.62;82.13;100616.88;693917;28;1082;-82
2023/06/21 00:27:55;;;;;;;32.13;24.00;;;;;;;20.60;82.25;100614.25;690131;28;1113;-82
2023/06/21 00:28:16;;;;;;;33.40;24.50;;;;;;;20.62;82.03;100623.06;691241;28;1172;-82
2023/06/21 00:28:36;;;;;;;34.77;24.83;;;;;;;20.62;82.06;100627.50;691294;28;1139;-81
2023/06/21 00:28:58;;;;;;;34.35;25.30;;;;;;;20.58;82.24;100621.34;691190;28;1249;-82
2023/06/21 00:29:19;;;;;;;33.38;25.30;;;;;;;20.58;81.97;100623.16;691049;28;1959;-81
2023/06/21 00:29:40;;;;;;;35.20;26.33;;;;;;;20.58;82.32;100620.50;693901;28;917;-81
2023/06/21 00:30:02;;;;;;;35.22;26.10;;;;;;;20.59;82.38;100627.56;691234;28;1346;-82
2023/06/21 00:30:23;;;;;;;35.42;26.17;;;;;;;20.64;82.38;100636.28;693898;28;1164;-82
2023/06/21 00:30:44;;;;;;;34.00;26.08;;;;;;;20.59;82.48;100635.50;691248;28;1411;-85
2023/06/21 00:31:08;;;;;;;35.20;26.63;;;;;;;20.60;82.53;100638.09;691247;28;1081;-81
2023/06/21 00:31:30;;;;;;;34.78;26.35;;;;;;;20.60;82.46;100634.59;691997;28;1339;-81
2023/06/21 00:31:51;;;;;;;33.00;25.25;;;;;;;20.61;82.36;100641.66;693787;28;1261;-82
2023/06/21 00:32:12;;;;;;;31.50;24.30;;;;;;;20.54;82.47;100635.56;696772;28;990;-82
2023/06/21 00:32:34;;;;;;;32.80;25.05;;;;;;;20.54;82.50;100636.44;693891;28;1192;-82
2023/06/21 00:32:55;;;;;;;33.87;25.70;;;;;;;20.51;82.52;100631.19;696538;28;1217;-82
2023/06/21 00:33:16;;;;;;;35.33;26.42;;;;;;;20.59;82.43;100638.16;696665;28;1200;-81
2023/06/21 00:33:38;;;;;;;36.30;26.67;;;;;;;20.53;82.61;100640.00;696616;28;1187;-81
2023/06/21 00:33:59;;;;;;;36.17;26.48;;;;;;;20.58;82.61;100644.34;691056;28;1242;-81
2023/06/21 00:34:20;;;;;;;37.57;26.10;;;;;;;20.59;82.64;100643.47;696483;28;1269;-82
2023/06/21 00:34:41;;;;;;;34.90;25.13;;;;;;;20.63;82.48;100650.44;696644;28;1515;-81
2023/06/21 00:35:18;;;;;;;34.50;25.17;;;;;;;20.57;82.62;100639.97;694009;28;896;-82
2023/06/21 00:35:39;;;;;;;36.38;26.02;;;;;;;20.53;82.71;100634.69;691182;28;1211;-81
2023/06/21 00:36:00;;;;;;;38.00;26.10;;;;;;;20.59;82.66;100648.75;688712;28;1240;-81
2023/06/21 00:36:21;;;;;;;35.05;25.10;;;;;;;20.55;82.88;100640.84;691131;28;1066;-82
2023/06/21 00:36:42;;;;;;;34.85;25.25;;;;;;;20.54;82.51;100640.88;693883;28;857;-81
2023/06/21 00:37:03;;;;;;;31.88;24.65;;;;;;;20.57;82.61;100639.97;685734;28;1304;-82
2023/06/21 00:37:26;;;;;;;32.80;24.80;;;;;;;20.50;82.58;100640.06;685780;28;968;-83
2023/06/21 00:37:47;;;;;;;32.35;24.67;;;;;;;20.57;82.63;100646.13;688644;28;1225;-81
2023/06/21 00:38:07;;;;;;;32.60;24.45;;;;;;;20.53;82.64;100642.63;688481;28;1071;-82
2023/06/21 00:38:32;;;;;;;31.50;24.77;;;;;;;20.52;82.67;100643.53;685859;28;1194;-83
2023/06/21 00:38:53;;;;;;;32.58;25.35;;;;;;;20.53;82.58;100642.63;688450;28;1325;-81
2023/06/21 00:39:14;;;;;;;34.97;25.75;;;;;;;20.52;82.72;100646.19;687773;28;1167;-82
2023/06/21 00:39:35;;;;;;;36.30;25.85;;;;;;;20.55;82.62;100654.09;691187;28;1323;-82
2023/06/21 00:39:55;;;;;;;34.03;24.98;;;;;;;20.52;82.62;100642.66;691071;28;1144;-80
2023/06/21 00:40:18;;;;;;;30.80;24.20;;;;;;;20.56;82.59;100654.97;691150;28;1099;-81
2023/06/21 00:40:39;;;;;;;30.27;23.88;;;;;;;20.51;82.67;100641.81;688264;28;1358;-81
2023/06/21 00:41:04;;;;;;;33.78;24.67;;;;;;;20.54;82.58;100646.19;688662;28;1350;-81
2023/06/21 00:41:25;;;;;;;34.22;24.20;;;;;;;20.51;82.58;100641.81;691075;28;988;-82
2023/06/21 00:41:47;;;;;;;32.85;24.40;;;;;;;20.50;82.42;100645.34;691177;28;1001;-82
2023/06/21 00:42:09;;;;;;;34.70;25.67;;;;;;;20.54;82.49;100643.53;691249;28;1191;-82
2023/06/21 00:42:30;;;;;;;34.78;26.23;;;;;;;20.49;82.78;100643.59;688268;28;1107;-82
2023/06/21 00:42:52;;;;;;;35.22;26.40;;;;;;;20.52;82.53;100647.97;691130;28;1128;-82
2023/06/21 00:43:12;;;;;;;32.58;25.50;;;;;;;20.47;82.69;100645.38;693963;28;995;-81
2023/06/21 00:43:33;;;;;;;30.55;24.75;;;;;;;20.44;82.62;100626.88;691635;28;1408;-82
2023/06/21 00:43:54;;;;;;;30.13;23.98;;;;;;;20.46;82.87;100635.69;688364;28;1109;-82
2023/06/21 00:44:15;;;;;;;30.30;23.27;;;;;;;20.41;82.83;100624.28;693959;28;1217;-82
2023/06/21 00:44:35;;;;;;;30.73;23.23;;;;;;;20.45;82.75;100631.28;689060;28;1398;-82
2023/06/21 00:44:56;;;;;;;31.05;23.30;;;;;;;20.39;82.75;100626.97;696795;28;904;-82
2023/06/21 00:45:20;;;;;;;30.85;23.48;;;;;;;20.45;82.70;100636.59;690938;28;1087;-82
2023/06/21 00:45:45;;;;;;;30.45;23.63;;;;;;;20.44;82.51;100639.25;688424;28;1104;-82
2023/06/21 00:46:06;;;;;;;31.65;23.77;;;;;;;20.41;82.63;100635.75;685784;28;1119;-82
2023/06/21 00:46:27;;;;;;;32.40;23.60;;;;;;;20.49;82.54;100648.91;688393;28;1080;-81
2023/06/21 00:46:50;;;;;;;31.67;23.55;;;;;;;20.46;82.65;100640.97;688015;28;1355;-82
2023/06/21 00:47:11;;;;;;;30.67;23.75;;;;;;;20.44;82.64;100645.44;688562;28;1215;-81
2023/06/21 00:47:32;;;;;;;32.35;24.80;;;;;;;20.43;82.73;100643.69;691080;28;1114;-82
2023/06/21 00:47:57;;;;;;;33.38;24.85;;;;;;;20.43;82.44;100640.16;691090;28;1418;-81
2023/06/21 00:48:17;;;;;;;32.90;24.75;;;;;;;20.44;82.50;100649.84;685601;28;1208;-81
2023/06/21 00:48:38;;;;;;;34.05;24.58;;;;;;;20.44;82.36;100653.41;692657;28;1079;-82
2023/06/21 00:48:59;;;;;;;36.40;24.63;;;;;;;20.47;82.43;100655.97;693961;28;861;-82
2023/06/21 00:49:20;;;;;;;35.50;24.10;;;;;;;20.45;82.40;100657.78;688246;28;1902;-81
2023/06/21 00:49:41;;;;;;;32.77;22.97;;;;;;;20.43;82.37;100651.66;691148;28;1165;-82
2023/06/21 00:50:02;;;;;;;32.55;22.83;;;;;;;20.43;82.30;100653.41;690438;28;1204;-81
2023/06/21 00:50:22;;;;;;;32.05;23.02;;;;;;;20.45;82.50;100657.78;691051;28;1432;-81
2023/06/21 00:50:43;;;;;;;32.47;23.88;;;;;;;20.45;82.49;100652.50;696539;28;1590;-82
2023/06/21 00:51:04;;;;;;;30.10;24.13;;;;;;;20.43;82.53;100653.41;693822;28;1117;-82
2023/06/21 00:51:25;;;;;;;31.77;24.40;;;;;;;20.47;82.47;100661.28;693720;28;1064;-82
2023/06/21 00:51:47;;;;;;;31.38;24.83;;;;;;;20.40;82.44;100654.31;688330;28;1320;-81
2023/06/21 00:52:08;;;;;;;30.98;24.50;;;;;;;20.45;82.44;100656.91;688480;28;1163;-81
2023/06/21 00:52:29;;;;;;;32.85;24.95;;;;;;;20.43;82.56;100654.28;690328;28;1314;-82
2023/06/21 00:52:49;;;;;;;33.63;24.02;;;;;;;20.47;82.39;100650.69;690585;28;1537;-81
2023/06/21 00:53:10;;;;;;;34.78;24.33;;;;;;;20.45;82.56;100657.78;688486;28;1139;-82
2023/06/21 00:53:31;;;;;;;31.65;23.88;;;;;;;20.40;82.18;100659.63;688265;28;1135;-82
2023/06/21 00:53:51;;;;;;;30.23;24.17;;;;;;;20.39;82.46;100653.47;691058;28;1295;-81
2023/06/21 00:54:16;;;;;;;30.95;24.38;;;;;;;20.44;82.53;100656.03;690776;28;1186;-82
2023/06/21 00:54:37;;;;;;;32.80;24.65;;;;;;;20.51;82.44;100678.91;696774;28;727;-81
2023/06/21 00:54:58;;;;;;;31.60;24.58;;;;;;;20.49;82.24;100667.47;693856;28;1243;-81
2023/06/21 00:55:19;;;;;;;32.67;24.90;;;;;;;20.52;82.16;100669.16;691875;28;1193;-81
2023/06/21 00:55:40;;;;;;;33.53;24.75;;;;;;;20.50;82.36;100666.56;691077;28;1116;-82
2023/06/21 00:56:01;;;;;;;34.25;25.17;;;;;;;20.55;82.13;100670.00;691106;28;1304;-81
2023/06/21 00:56:22;;;;;;;31.90;25.00;;;;;;;20.50;82.07;100663.00;691046;28;1124;-82
2023/06/21 00:56:43;;;;;;;31.23;24.98;;;;;;;20.47;81.96;100650.69;693794;28;1275;-81
2023/06/21 00:57:04;;;;;;;30.45;24.10;;;;;;;20.48;81.94;100663.03;693669;28;1472;-82
2023/06/21 00:57:25;;;;;;;32.22;24.50;;;;;;;20.49;82.00;100664.81;691094;28;1215;-81
2023/06/21 00:57:46;;;;;;;32.13;24.30;;;;;;;20.51;81.99;100663.00;690356;28;1461;-81
2023/06/21 00:58:09;;;;;;;32.70;24.85;;;;;;;20.51;82.24;100667.41;691290;28;944;-82
2023/06/21 00:58:31;;;;;;;31.55;24.70;;;;;;;20.48;82.29;100657.72;696399;28;1269;-81
2023/06/21 00:59:16;;;;;;;31.20;24.63;;;;;;;20.55;82.11;100669.13;693680;28;1366;-81
2023/06/21 00:59:37;;;;;;;30.98;24.27;;;;;;;20.47;82.30;100663.94;690849;28;1711;-81
2023/06/21 01:00:00;;;;;;;31.55;24.27;;;;;;;20.43;82.25;100653.41;691131;28;1270;-81
2023/06/21 01:00:22;;;;;;;31.35;23.42;;;;;;;20.48;82.21;100659.53;690657;28;1134;-81
2023/06/21 01:00:43;;;;;;;33.13;24.27;;;;;;;20.46;82.43;100658.69;690850;28;1687;-82
2023/06/21 01:01:04;;;;;;;33.70;25.27;;;;;;;20.43;82.47;100651.66;690967;28;1288;-81
2023/06/21 01:01:28;;;;;;;32.33;25.25;;;;;;;20.43;82.45;100650.75;692888;28;1243;-82
2023/06/21 01:01:49;;;;;;;31.48;24.55;;;;;;;20.41;82.34;100646.34;693828;28;932;-82
2023/06/21 01:02:10;;;;;;;30.27;23.77;;;;;;;20.45;82.40;100652.50;691156;28;1245;-82
2023/06/21 01:02:31;;;;;;;30.63;23.77;;;;;;;20.41;82.34;100648.16;688393;28;1020;-82
2023/06/21 01:02:55;;;;;;;30.73;23.95;;;;;;;20.41;82.40;100654.31;688391;28;910;-82
2023/06/21 01:03:19;;;;;;;31.42;24.60;;;;;;;20.43;82.37;100649.00;685508;28;1225;-82
2023/06/21 01:03:40;;;;;;;31.75;24.83;;;;;;;20.42;82.37;100649.91;688320;28;1578;-81
2023/06/21 01:04:01;;;;;;;30.40;24.75;;;;;;;20.43;82.44;100646.34;688575;28;798;-82
2023/06/21 01:04:27;;;;;;;30.85;24.85;;;;;;;20.38;82.43;100637.56;691054;28;1015;-82
2023/06/21 01:04:49;;;;;;;32.03;24.73;;;;;;;20.32;82.42;100633.25;693739;28;1222;-82
2023/06/21 01:05:10;;;;;;;31.15;24.25;;;;;;;20.37;82.50;100641.13;688030;28;1235;-82
2023/06/21 01:05:30;;;;;;;32.50;24.88;;;;;;;20.40;82.52;100639.31;690856;28;1295;-82
2023/06/21 01:06:22;;;;;;;30.60;24.38;;;;;;;20.44;82.58;100658.69;688375;28;1439;-82
2023/06/21 01:06:49;;;;;;;33.50;25.00;;;;;;;20.40;82.69;100654.31;687855;28;1219;-82
2023/06/21 01:07:10;;;;;;;32.75;24.10;;;;;;;20.42;82.68;100655.19;688535;28;1120;-81
2023/06/21 01:07:43;;;;;;;32.53;25.08;;;;;;;20.41;82.52;100658.75;687645;28;1203;-82
2023/06/21 01:08:35;;;;;;;34.22;25.42;;;;;;;20.40;82.70;100654.31;688441;28;1193;-82
2023/06/21 01:09:06;;;;;;;31.48;23.92;;;;;;;20.39;82.84;100658.75;690987;28;1109;-82
2023/06/21 01:09:44;;;;;;;36.67;24.83;;;;;;;20.38;82.78;100661.44;696418;28;1296;-82
2023/06/21 01:10:38;;;;;;;36.78;25.73;;;;;;;20.39;82.82;100655.22;693898;28;1212;-82
2023/06/21 01:11:07;;;;;;;32.80;25.67;;;;;;;20.39;82.74;100664.06;691625;28;902;-82
2023/06/21 01:11:36;;;;;;;32.83;25.30;;;;;;;20.40;82.89;100654.31;695620;28;1085;-82
2023/06/21 01:12:06;;;;;;;31.75;25.48;;;;;;;20.33;82.68;100642.94;696696;28;1218;-82
2023/06/21 01:13:06;;;;;;;31.75;24.75;;;;;;;20.37;82.69;100652.63;692953;28;1418;-81
2023/06/21 01:13:39;;;;;;;33.28;25.10;;;;;;;20.35;82.67;100649.09;695716;28;1326;-82
2023/06/21 01:14:24;;;;;;;34.03;25.63;;;;;;;20.36;82.65;100647.34;696676;28;819;-82
2023/06/21 01:15:00;;;;;;;34.80;26.48;;;;;;;20.30;82.67;100650.06;695688;28;1199;-81
2023/06/21 01:15:26;;;;;;;35.43;25.20;;;;;;;20.29;82.74;100649.22;696460;28;1238;-82
2023/06/21 01:15:54;;;;;;;33.22;24.70;;;;;;;20.28;82.90;100650.97;691706;28;1370;-82
2023/06/21 01:16:17;;;;;;;30.33;25.20;;;;;;;20.25;82.82;100647.50;693315;28;1412;-82
2023/06/21 01:16:40;;;;;;;31.30;25.23;;;;;;;20.25;82.83;100643.06;691034;28;1191;-82
2023/06/21 01:17:03;;;;;;;33.55;25.70;;;;;;;20.27;82.91;100657.16;692528;28;1245;-82
2023/06/21 01:17:28;;;;;;;36.05;26.25;;;;;;;20.19;82.87;100635.22;693698;28;1301;-82
2023/06/21 01:17:52;;;;;;;35.20;26.45;;;;;;;20.26;83.18;100649.22;688222;28;1208;-82
2023/06/21 01:18:17;;;;;;;31.48;25.10;;;;;;;20.24;82.94;100645.75;691002;28;1297;-82
2023/06/21 01:18:40;;;;;;;29.33;24.53;;;;;;;20.22;83.04;100647.53;688324;28;941;-81
2023/06/21 01:19:06;;;;;;;29.73;24.40;;;;;;;20.26;82.92;100651.88;688333;28;1069;-82
2023/06/21 01:19:39;;;;;;;30.30;24.38;;;;;;;20.19;83.26;100640.50;688062;28;1246;-82
2023/06/21 01:20:08;;;;;;;32.90;25.55;;;;;;;20.18;83.03;100644.06;687881;28;1313;-82
2023/06/21 01:20:33;;;;;;;31.15;25.13;;;;;;;20.21;83.29;100649.31;687701;28;1144;-82
2023/06/21 01:20:58;;;;;;;34.40;24.70;;;;;;;20.12;82.91;100634.41;693728;28;1204;-82
2023/06/21 01:21:24;;;;;;;36.17;25.05;;;;;;;20.22;83.12;100650.19;693574;28;1031;-82
2023/06/21 01:21:45;;;;;;;34.60;24.90;;;;;;;20.18;83.10;100644.06;690990;28;934;-81
2023/06/21 01:22:18;;;;;;;34.63;25.08;;;;;;;20.18;83.22;100648.47;690245;28;1156;-82
2023/06/21 01:23:03;;;;;;;33.88;25.02;;;;;;;20.15;83.30;100646.72;691143;28;996;-81
2023/06/21 01:23:53;;;;;;;34.45;26.20;;;;;;;20.23;83.19;100662.53;685622;28;1179;-82
2023/06/21 01:24:28;;;;;;;32.42;25.92;;;;;;;20.13;83.14;100645.88;685213;28;1242;-81
2023/06/21 01:25:07;;;;;;;31.23;25.05;;;;;;;20.21;83.16;100656.34;690717;28;1295;-81
2023/06/21 01:25:52;;;;;;;31.05;24.85;;;;;;;20.19;83.29;100663.47;690911;28;1111;-81
2023/06/21 01:26:43;;;;;;;31.20;24.63;;;;;;;20.18;83.20;100659.97;691173;28;1200;-82
2023/06/21 01:27:21;;;;;;;32.42;25.13;;;;;;;20.08;83.32;100653.00;688115;28;1042;-81
2023/06/21 01:28:03;;;;;;;31.92;25.42;;;;;;;20.11;83.21;100660.94;691038;28;1163;-82
2023/06/21 01:28:41;;;;;;;31.50;24.88;;;;;;;20.06;83.19;100661.00;688339;28;1015;-81
2023/06/21 01:29:03;;;;;;;32.65;25.50;;;;;;;20.12;83.16;100670.63;692312;28;1167;-81
2023/06/21 01:29:30;;;;;;;33.50;25.73;;;;;;;20.06;83.29;100666.28;693635;28;1910;-82
2023/06/21 01:29:55;;;;;;;32.75;25.65;;;;;;;20.07;83.22;100667.16;689281;28;988;-81
2023/06/21 01:30:18;;;;;;;32.25;25.38;;;;;;;20.08;83.30;100668.91;688144;28;1398;-81
2023/06/21 01:30:40;;;;;;;31.67;25.27;;;;;;;20.04;83.17;100662.75;688372;28;983;-81
2023/06/21 01:31:01;;;;;;;33.35;25.67;;;;;;;19.96;83.33;100657.59;691314;28;1292;-81
2023/06/21 01:31:23;;;;;;;34.47;25.55;;;;;;;20.06;83.31;100671.59;690983;28;1152;-82
2023/06/21 01:31:45;;;;;;;35.35;25.60;;;;;;;20.06;83.36;100670.69;693147;28;1211;-82
2023/06/21 01:32:07;;;;;;;33.10;25.42;;;;;;;19.97;83.46;100661.97;696484;28;1395;-82
2023/06/21 01:32:29;;;;;;;31.25;25.45;;;;;;;19.97;83.45;100661.09;693681;28;1242;-82
2023/06/21 01:32:53;;;;;;;30.08;24.70;;;;;;;19.98;83.55;100661.09;693604;28;1113;-81
2023/06/21 01:33:17;;;;;;;30.60;24.17;;;;;;;19.97;83.49;100664.63;691198;28;1458;-81
2023/06/21 01:33:39;;;;;;;32.28;25.23;;;;;;;20.00;83.47;100661.94;693702;28;1397;-82
2023/06/21 01:34:03;;;;;;;32.35;25.13;;;;;;;20.03;83.58;100676.06;693400;28;1240;-81
2023/06/21 01:34:24;;;;;;;33.20;25.08;;;;;;;19.94;83.67;100664.69;696282;28;1346;-81
2023/06/21 01:34:46;;;;;;;34.20;24.90;;;;;;;20.03;83.37;100671.63;692859;28;1340;-82
2023/06/21 01:35:09;;;;;;;34.90;25.08;;;;;;;20.02;83.57;100669.00;693771;28;1302;-81
2023/06/21 01:35:29;;;;;;;33.35;24.50;;;;;;;20.03;83.41;100670.75;696275;28;1248;-81
2023/06/21 01:35:52;;;;;;;33.43;24.43;;;;;;;19.95;83.56;100661.13;692376;28;1293;-82
2023/06/21 01:36:13;;;;;;;32.92;25.27;;;;;;;19.96;83.53;100662.00;690823;28;1364;-81
2023/06/21 01:36:34;;;;;;;32.13;25.15;;;;;;;19.97;83.67;100667.28;688289;28;1146;-82
2023/06/21 01:36:56;;;;;;;30.67;24.40;;;;;;;19.98;83.66;100668.16;690759;28;1183;-82
2023/06/21 01:37:17;;;;;;;30.80;24.10;;;;;;;19.97;83.66;100675.22;690871;28;1002;-81
2023/06/21 01:37:42;;;;;;;29.85;23.52;;;;;;;19.88;83.63;100656.81;691099;28;1048;-81
2023/06/21 01:38:03;;;;;;;30.45;23.33;;;;;;;19.96;83.52;100670.81;693290;28;1120;-82
2023/06/21 01:38:24;;;;;;;32.20;23.77;;;;;;;19.92;83.32;100666.44;693676;28;1081;-82
2023/06/21 01:38:45;;;;;;;33.33;23.92;;;;;;;19.90;83.72;100662.97;692899;28;1376;-81
2023/06/21 01:39:09;;;;;;;33.08;23.75;;;;;;;19.96;83.55;100672.59;696414;28;1284;-82
2023/06/21 01:39:31;;;;;;;30.23;22.75;;;;;;;19.95;83.64;100677.03;698332;28;1116;-82
2023/06/21 01:39:52;;;;;;;29.45;22.75;;;;;;;19.94;83.61;100671.75;693715;28;1176;-82
2023/06/21 01:40:15;;;;;;;32.08;23.90;;;;;;;19.88;83.57;100667.41;693720;28;1232;-82
2023/06/21 01:40:38;;;;;;;32.95;23.90;;;;;;;19.94;83.63;100679.69;696451;28;1121;-81
2023/06/21 01:40:59;;;;;;;33.17;23.52;;;;;;;19.93;83.56;100678.81;699432;28;1171;-81
2023/06/21 01:41:20;;;;;;;31.27;22.70;;;;;;;19.87;83.66;100666.47;693557;28;1217;-81
2023/06/21 01:41:41;;;;;;;32.55;23.35;;;;;;;19.87;83.69;100669.13;693623;28;1152;-81
2023/06/21 01:42:04;;;;;;;28.80;22.58;;;;;;;19.90;83.71;100676.19;698318;28;1355;-81
2023/06/21 01:42:25;;;;;;;29.63;22.50;;;;;;;19.89;83.69;100674.44;693729;28;943;-82
2023/06/21 01:42:46;;;;;;;30.20;22.90;;;;;;;19.93;83.65;100685.88;693603;28;1537;-82
2023/06/21 01:43:06;;;;;;;30.73;23.33;;;;;;;19.88;83.54;100672.69;690955;28;1178;-82
2023/06/21 01:43:29;;;;;;;31.60;23.77;;;;;;;19.86;83.76;100679.75;688243;28;1109;-81
2023/06/21 01:43:50;;;;;;;31.42;23.27;;;;;;;19.82;83.64;100670.09;688289;28;889;-81
2023/06/21 01:44:15;;;;;;;31.00;23.40;;;;;;;19.86;83.66;100675.31;688342;28;1319;-81
2023/06/21 01:44:36;;;;;;;30.55;22.83;;;;;;;19.91;83.74;100690.31;688204;28;1456;-81
2023/06/21 01:44:57;;;;;;;29.30;22.38;;;;;;;19.92;83.47;100690.28;688319;28;1333;-81
2023/06/21 01:45:23;;;;;;;28.08;21.58;;;;;;;19.83;83.37;100677.13;693562;28;1506;-80
2023/06/21 01:45:44;;;;;;;28.58;21.65;;;;;;;19.81;83.44;100676.28;693562;28;1347;-81
2023/06/21 01:46:07;;;;;;;28.95;22.05;;;;;;;19.86;83.26;100680.63;690972;28;1268;-81
2023/06/21 01:46:29;;;;;;;28.40;22.75;;;;;;;19.88;83.35;100688.59;690930;28;1194;-81
2023/06/21 01:46:52;;;;;;;27.50;21.92;;;;;;;19.85;83.34;100680.63;693384;28;983;-81
2023/06/21 01:47:13;;;;;;;26.90;21.00;;;;;;;19.80;83.14;100680.69;694019;28;1171;-81
2023/06/21 01:47:35;;;;;;;28.63;21.13;;;;;;;19.82;83.30;100678.03;693629;28;1236;-81
2023/06/21 01:47:57;;;;;;;28.23;21.45;;;;;;;19.78;83.13;100671.03;690924;28;1106;-81
2023/06/21 01:48:18;;;;;;;30.27;22.20;;;;;;;19.81;83.25;100686.88;690897;28;1011;-81
2023/06/21 01:48:41;;;;;;;31.45;22.45;;;;;;;19.90;83.08;100701.81;693720;28;1177;-81
2023/06/21 01:49:04;;;;;;;30.13;21.63;;;;;;;19.86;83.07;100688.56;693596;28;1089;-81
2023/06/21 01:49:27;;;;;;;28.02;21.83;;;;;;;19.88;83.11;100699.19;696341;28;1971;-81
2023/06/21 01:49:48;;;;;;;26.52;21.25;;;;;;;19.89;82.92;100703.56;695466;28;1208;-81